Terminal Aerodrome Forecast
Issued by NWS Twin Cities, MN

Home | Current Version | Previous Version | Graphics & Text | Print | Product List | Glossary On
Versions: 1 2 3 4 5 6 7 8 9 10 11 12 13 14 15
379
FTUS43 KMPX 212331
TAFSTC
TAF
KSTC 212331Z 2200/2224 VRB03KT P6SM SKC
     FM221200 24004KT P6SM SKC
     FM221800 25010KT P6SM SKC=

USA.gov is the U.S. government's official web portal to all federal, state and local government web resources and services.